Time;durP1;ratioP1;P1;durP2;ratioP2;P2;SDS_P1;SDS_P2;PMS_P1;PMS_P2;Temp;Humidity;BMP_temperature;BMP_pressure;BME280_temperature;BME280_humidity;BME280_pressure;Samples;Min_cycle;Max_cycle;Signal;HPM_P1;HPM_P2
2021/10/06 00:01:38;;;;;;;13.20;5.05;;;;;;;;;;5080998;27;20047;-87
2021/10/06 00:04:05;;;;;;;13.98;5.53;;;;;;;;;;5104471;27;20047;-87
2021/10/06 00:06:31;;;;;;;13.88;5.65;;;;;;;;;;5097558;27;20047;-87
2021/10/06 00:08:57;;;;;;;12.10;5.95;;;;;;;;;;5115684;27;20378;-87
2021/10/06 00:11:23;;;;;;;14.43;6.85;;;;;;;;;;5096479;27;20048;-86
2021/10/06 00:13:49;;;;;;;10.52;6.32;;;;;;;;;;5095825;27;20050;-88
2021/10/06 00:16:16;;;;;;;16.40;7.50;;;;;;;;;;5117208;27;20039;-88
2021/10/06 00:18:42;;;;;;;12.52;6.00;;;;;;;;;;5101126;27;20039;-89
2021/10/06 00:21:11;;;;;;;15.15;8.00;;;;;;;;;;5097352;27;20439;-87
2021/10/06 00:23:37;;;;;;;17.80;7.55;;;;;;;;;;5106138;27;20047;-89
2021/10/06 00:26:04;;;;;;;16.02;7.15;;;;;;;;;;5106866;27;20043;-88
2021/10/06 00:28:30;;;;;;;13.68;6.68;;;;;;;;;;5107596;27;20091;-87
2021/10/06 00:30:57;;;;;;;13.85;6.45;;;;;;;;;;5106951;27;20054;-87
2021/10/06 00:33:25;;;;;;;13.70;6.70;;;;;;;;;;5100953;27;20038;-87
2021/10/06 00:35:52;;;;;;;12.50;6.25;;;;;;;;;;5103095;27;20046;-87
2021/10/06 00:38:18;;;;;;;15.32;7.25;;;;;;;;;;5096727;27;20038;-85
2021/10/06 00:40:44;;;;;;;12.18;6.68;;;;;;;;;;5102440;27;20099;-88
2021/10/06 00:43:10;;;;;;;11.60;5.90;;;;;;;;;;5108286;27;20051;-88
2021/10/06 00:45:36;;;;;;;16.17;6.47;;;;;;;;;;5100815;27;20466;-86
2021/10/06 00:48:03;;;;;;;11.25;6.28;;;;;;;;;;5097935;27;20066;-87
2021/10/06 00:50:29;;;;;;;15.23;6.18;;;;;;;;;;5113097;27;20043;-87
2021/10/06 00:52:55;;;;;;;14.13;6.45;;;;;;;;;;5110337;27;20130;-88
2021/10/06 00:55:21;;;;;;;12.80;6.45;;;;;;;;;;5104427;27;20047;-87
2021/10/06 00:57:47;;;;;;;14.05;5.70;;;;;;;;;;5114621;27;20042;-88
2021/10/06 01:00:14;;;;;;;10.95;5.40;;;;;;;;;;5104584;27;20473;-88
2021/10/06 01:02:40;;;;;;;13.80;5.15;;;;;;;;;;5104210;27;20175;-88
2021/10/06 01:05:08;;;;;;;11.52;5.05;;;;;;;;;;5085600;27;20082;-88
2021/10/06 01:07:34;;;;;;;16.58;5.53;;;;;;;;;;5115046;27;20504;-88
2021/10/06 01:10:04;;;;;;;12.05;4.65;;;;;;;;;;5098266;27;20039;-88
2021/10/06 01:12:30;;;;;;;10.23;4.35;;;;;;;;;;5119068;27;20087;-88
2021/10/06 01:14:57;;;;;;;10.73;4.90;;;;;;;;;;5113058;27;20654;-87
2021/10/06 01:17:23;;;;;;;9.32;4.82;;;;;;;;;;5116106;27;20054;-87
2021/10/06 01:19:49;;;;;;;10.85;4.10;;;;;;;;;;5114668;27;20047;-88
2021/10/06 01:22:16;;;;;;;9.25;3.75;;;;;;;;;;5105281;27;20398;-87
2021/10/06 01:24:42;;;;;;;8.23;3.97;;;;;;;;;;5085700;27;20059;-89
2021/10/06 01:27:08;;;;;;;11.45;3.60;;;;;;;;;;5106528;27;20142;-87
2021/10/06 01:29:34;;;;;;;13.52;4.00;;;;;;;;;;5111557;27;20046;-88
2021/10/06 01:32:00;;;;;;;17.27;3.78;;;;;;;;;;5090490;27;20089;-88
2021/10/06 01:34:26;;;;;;;7.88;3.30;;;;;;;;;;5114042;27;20071;-87
2021/10/06 01:36:54;;;;;;;8.90;3.58;;;;;;;;;;5098133;27;20039;-87
2021/10/06 01:39:21;;;;;;;6.82;3.00;;;;;;;;;;5096460;27;20047;-87
2021/10/06 01:41:48;;;;;;;8.70;3.30;;;;;;;;;;5115253;27;20038;-89
2021/10/06 01:44:18;;;;;;;10.27;3.22;;;;;;;;;;5104416;27;20043;-87
2021/10/06 01:46:44;;;;;;;12.50;3.17;;;;;;;;;;5130717;27;20493;-87
2021/10/06 01:49:11;;;;;;;7.90;3.25;;;;;;;;;;5105356;27;20035;-86
2021/10/06 01:51:37;;;;;;;14.50;3.65;;;;;;;;;;5104729;27;20084;-87
2021/10/06 01:54:04;;;;;;;10.68;3.45;;;;;;;;;;5120126;27;20039;-87
2021/10/06 01:56:31;;;;;;;7.28;2.70;;;;;;;;;;5101993;27;20051;-87
2021/10/06 01:58:57;;;;;;;10.27;3.35;;;;;;;;;;5118801;27;20046;-86
2021/10/06 02:01:23;;;;;;;11.65;3.72;;;;;;;;;;5103479;27;20046;-86
2021/10/06 02:03:49;;;;;;;8.75;3.75;;;;;;;;;;5105162;27;20027;-87
2021/10/06 02:06:15;;;;;;;11.82;3.83;;;;;;;;;;5098273;27;20035;-87
2021/10/06 02:08:41;;;;;;;10.32;3.58;;;;;;;;;;5097275;27;20099;-88
2021/10/06 02:11:07;;;;;;;11.18;4.10;;;;;;;;;;5105645;27;20054;-88
2021/10/06 02:13:33;;;;;;;10.48;4.43;;;;;;;;;;5103170;27;20393;-86
2021/10/06 02:16:00;;;;;;;12.13;4.47;;;;;;;;;;5103428;27;20046;-87
2021/10/06 02:18:26;;;;;;;12.23;5.82;;;;;;;;;;5097647;27;20046;-87
2021/10/06 02:20:52;;;;;;;12.07;4.70;;;;;;;;;;5108804;27;20049;-86
2021/10/06 02:23:18;;;;;;;11.07;5.03;;;;;;;;;;5102882;27;20070;-86
2021/10/06 02:25:44;;;;;;;9.68;4.57;;;;;;;;;;5095218;27;20517;-88
2021/10/06 02:28:10;;;;;;;10.82;5.35;;;;;;;;;;5114198;27;20380;-87
2021/10/06 02:30:36;;;;;;;10.65;4.97;;;;;;;;;;5096959;27;20133;-86
2021/10/06 02:33:03;;;;;;;19.30;6.53;;;;;;;;;;5099659;27;20038;-87
2021/10/06 02:35:29;;;;;;;11.75;4.95;;;;;;;;;;5103291;27;20039;-87
2021/10/06 02:37:55;;;;;;;9.27;5.75;;;;;;;;;;5123492;27;20092;-87
2021/10/06 02:40:21;;;;;;;12.93;5.95;;;;;;;;;;5101481;27;20043;-87
2021/10/06 02:42:48;;;;;;;19.42;6.10;;;;;;;;;;5111520;27;20088;-87
2021/10/06 02:45:15;;;;;;;11.50;5.72;;;;;;;;;;5104937;27;20459;-87
2021/10/06 02:47:42;;;;;;;14.30;5.93;;;;;;;;;;5087124;27;20181;-85
2021/10/06 02:50:10;;;;;;;8.27;5.22;;;;;;;;;;5112519;27;20047;-87
2021/10/06 02:52:36;;;;;;;12.85;5.65;;;;;;;;;;5111315;27;20738;-88
2021/10/06 02:55:02;;;;;;;13.80;6.40;;;;;;;;;;5112041;27;20764;-87
2021/10/06 02:57:29;;;;;;;14.48;6.65;;;;;;;;;;5113304;27;20042;-87
2021/10/06 02:59:55;;;;;;;11.57;6.38;;;;;;;;;;5099792;27;20343;-87
2021/10/06 03:02:21;;;;;;;12.88;6.10;;;;;;;;;;5101150;27;20053;-86
2021/10/06 03:04:47;;;;;;;11.95;6.75;;;;;;;;;;5101332;27;20042;-89
2021/10/06 03:07:14;;;;;;;17.52;7.18;;;;;;;;;;5106372;27;20423;-89
2021/10/06 03:09:40;;;;;;;14.23;6.65;;;;;;;;;;5107522;27;20172;-88
2021/10/06 03:12:06;;;;;;;15.43;8.07;;;;;;;;;;5089005;27;20042;-87
2021/10/06 03:14:32;;;;;;;11.10;7.32;;;;;;;;;;5116193;27;20050;-87
2021/10/06 03:16:58;;;;;;;12.00;7.18;;;;;;;;;;5119369;27;20046;-87
2021/10/06 03:19:24;;;;;;;13.75;6.88;;;;;;;;;;5114669;27;20049;-87
2021/10/06 03:21:50;;;;;;;12.57;7.22;;;;;;;;;;5099580;27;20062;-88
2021/10/06 03:24:17;;;;;;;14.30;7.60;;;;;;;;;;5107692;27;20537;-81
2021/10/06 03:26:44;;;;;;;13.23;7.60;;;;;;;;;;5098992;27;20127;-82
2021/10/06 03:29:10;;;;;;;16.20;7.90;;;;;;;;;;5103464;27;20122;-82
2021/10/06 03:31:36;;;;;;;16.48;7.78;;;;;;;;;;5101550;27;20039;-86
2021/10/06 03:34:02;;;;;;;18.85;8.23;;;;;;;;;;5103074;27;20420;-81
2021/10/06 03:36:28;;;;;;;17.75;8.95;;;;;;;;;;5112847;27;20435;-83
2021/10/06 03:38:55;;;;;;;13.57;7.65;;;;;;;;;;5113363;27;20183;-78
2021/10/06 03:41:21;;;;;;;19.50;8.77;;;;;;;;;;5109083;27;20785;-83
2021/10/06 03:43:47;;;;;;;18.77;8.65;;;;;;;;;;5103347;27;20068;-87
2021/10/06 03:46:13;;;;;;;19.23;8.93;;;;;;;;;;5118352;27;20065;-86
2021/10/06 03:48:40;;;;;;;14.55;8.90;;;;;;;;;;5128226;27;20465;-83
2021/10/06 03:51:06;;;;;;;15.63;9.57;;;;;;;;;;5108262;27;20035;-83
2021/10/06 03:53:32;;;;;;;20.02;10.15;;;;;;;;;;5100132;27;20122;-90
2021/10/06 03:55:58;;;;;;;18.67;10.60;;;;;;;;;;5108559;27;20401;-82
2021/10/06 03:58:24;;;;;;;21.05;9.55;;;;;;;;;;5108379;27;20091;-83
2021/10/06 04:00:50;;;;;;;17.85;8.90;;;;;;;;;;5125191;27;20039;-87
2021/10/06 04:03:16;;;;;;;18.48;10.30;;;;;;;;;;5098729;27;20053;-87
2021/10/06 04:05:42;;;;;;;18.60;9.63;;;;;;;;;;5092971;27;20088;-87
2021/10/06 04:08:08;;;;;;;16.48;8.30;;;;;;;;;;5127450;27;20039;-87
2021/10/06 04:10:35;;;;;;;14.02;9.00;;;;;;;;;;5131463;27;20132;-87
2021/10/06 04:13:01;;;;;;;14.32;8.55;;;;;;;;;;5119320;27;20042;-88
2021/10/06 04:15:27;;;;;;;17.08;8.93;;;;;;;;;;5111374;27;20039;-86
2021/10/06 04:17:57;;;;;;;16.55;7.45;;;;;;;;;;5118971;27;20438;-87
2021/10/06 04:20:23;;;;;;;14.50;7.88;;;;;;;;;;5136892;27;20065;-87
2021/10/06 04:22:49;;;;;;;12.63;7.65;;;;;;;;;;5135993;27;20058;-87
2021/10/06 04:25:15;;;;;;;12.55;7.15;;;;;;;;;;5115686;27;20382;-86
2021/10/06 04:27:41;;;;;;;18.48;7.50;;;;;;;;;;5126368;27;20084;-87
2021/10/06 04:30:08;;;;;;;15.70;6.90;;;;;;;;;;5122301;27;20042;-88
2021/10/06 04:32:34;;;;;;;14.40;6.40;;;;;;;;;;5134423;27;20516;-87
2021/10/06 04:35:00;;;;;;;12.90;5.53;;;;;;;;;;5090094;27;20046;-89
2021/10/06 04:37:26;;;;;;;14.52;6.65;;;;;;;;;;5102754;27;20051;-87
2021/10/06 04:39:52;;;;;;;13.65;6.25;;;;;;;;;;5098144;27;20085;-88
2021/10/06 04:42:19;;;;;;;7.65;5.55;;;;;;;;;;5099224;27;20047;-87
2021/10/06 04:44:45;;;;;;;13.02;5.40;;;;;;;;;;5130981;27;20473;-87
2021/10/06 04:47:11;;;;;;;14.80;6.22;;;;;;;;;;5098310;27;20126;-88
2021/10/06 04:49:37;;;;;;;16.30;6.47;;;;;;;;;;5115146;27;20402;-87
2021/10/06 04:52:03;;;;;;;11.70;5.72;;;;;;;;;;5117774;27;20485;-89
2021/10/06 04:54:29;;;;;;;14.15;6.10;;;;;;;;;;5135550;27;20458;-88
2021/10/06 04:56:55;;;;;;;13.43;6.18;;;;;;;;;;5098796;27;20046;-88
2021/10/06 04:59:21;;;;;;;12.70;5.28;;;;;;;;;;5102532;27;20076;-86
2021/10/06 05:01:48;;;;;;;8.80;4.70;;;;;;;;;;5088367;27;20050;-87
2021/10/06 05:04:14;;;;;;;13.18;5.55;;;;;;;;;;5100870;27;20451;-87
2021/10/06 05:06:40;;;;;;;12.13;4.53;;;;;;;;;;5101943;27;20046;-88
2021/10/06 05:09:06;;;;;;;10.73;3.95;;;;;;;;;;5134668;27;20117;-87
2021/10/06 05:11:32;;;;;;;10.00;3.65;;;;;;;;;;5118730;27;20042;-89
2021/10/06 05:13:59;;;;;;;10.88;3.53;;;;;;;;;;5100832;27;20084;-87
2021/10/06 05:16:25;;;;;;;11.57;4.00;;;;;;;;;;5129167;27;20096;-87
2021/10/06 05:18:51;;;;;;;7.75;3.67;;;;;;;;;;5127417;27;20053;-88
2021/10/06 05:21:18;;;;;;;10.07;3.72;;;;;;;;;;5101260;27;20057;-86
2021/10/06 05:23:44;;;;;;;7.60;3.13;;;;;;;;;;5133775;27;20062;-87
2021/10/06 05:26:10;;;;;;;9.88;3.47;;;;;;;;;;5115857;27;20130;-88
2021/10/06 05:28:36;;;;;;;8.80;3.22;;;;;;;;;;5114911;27;20096;-87
2021/10/06 05:31:02;;;;;;;9.40;3.78;;;;;;;;;;5127002;27;20038;-88
2021/10/06 05:33:28;;;;;;;9.05;3.53;;;;;;;;;;5117657;27;20047;-86
2021/10/06 05:35:54;;;;;;;8.70;3.72;;;;;;;;;;5117869;27;20046;-87
2021/10/06 05:38:20;;;;;;;10.32;4.53;;;;;;;;;;5135081;27;20095;-87
2021/10/06 05:40:46;;;;;;;11.70;5.00;;;;;;;;;;5117089;27;20134;-87
2021/10/06 05:43:13;;;;;;;9.25;4.70;;;;;;;;;;5100649;27;20046;-87
2021/10/06 05:45:39;;;;;;;11.15;4.82;;;;;;;;;;5114254;27;20041;-87
2021/10/06 05:48:06;;;;;;;11.85;5.00;;;;;;;;;;5117034;27;20134;-90
2021/10/06 05:50:32;;;;;;;9.48;4.72;;;;;;;;;;5094960;27;20084;-87
2021/10/06 05:52:59;;;;;;;6.63;4.10;;;;;;;;;;5126515;27;20112;-89
2021/10/06 05:55:26;;;;;;;9.07;4.60;;;;;;;;;;5096742;28;20283;-87
2021/10/06 05:57:52;;;;;;;6.95;5.22;;;;;;;;;;5116238;27;20047;-88
2021/10/06 06:00:18;;;;;;;12.52;5.45;;;;;;;;;;5097815;28;20501;-89
2021/10/06 06:02:46;;;;;;;9.23;5.03;;;;;;;;;;5132437;27;20038;-87
2021/10/06 06:05:12;;;;;;;7.45;5.25;;;;;;;;;;5115903;27;20034;-88
2021/10/06 06:07:38;;;;;;;9.05;5.43;;;;;;;;;;5134587;27;20067;-88
2021/10/06 06:10:05;;;;;;;8.05;4.70;;;;;;;;;;5087334;28;20054;-87
2021/10/06 06:12:31;;;;;;;10.32;4.82;;;;;;;;;;5108555;27;20046;-87
2021/10/06 06:14:57;;;;;;;7.28;4.65;;;;;;;;;;5106692;28;20051;-88
2021/10/06 06:17:23;;;;;;;9.30;4.40;;;;;;;;;;5112589;27;20046;-87
2021/10/06 06:19:49;;;;;;;9.73;4.88;;;;;;;;;;5135354;27;20042;-88
2021/10/06 06:22:15;;;;;;;8.20;4.05;;;;;;;;;;5117319;27;20088;-88
2021/10/06 06:24:42;;;;;;;9.30;4.28;;;;;;;;;;5116207;27;20050;-88
2021/10/06 06:27:08;;;;;;;8.82;4.38;;;;;;;;;;5102237;28;20047;-89
2021/10/06 06:29:34;;;;;;;10.65;4.78;;;;;;;;;;5118798;27;20038;-88
2021/10/06 06:32:01;;;;;;;10.15;4.50;;;;;;;;;;5134898;27;20078;-88
2021/10/06 06:34:27;;;;;;;8.48;4.32;;;;;;;;;;5109816;27;20050;-88
2021/10/06 06:36:53;;;;;;;7.90;4.18;;;;;;;;;;5122252;27;20046;-88
2021/10/06 06:39:19;;;;;;;7.88;4.50;;;;;;;;;;5120505;27;20054;-88
2021/10/06 06:41:46;;;;;;;8.27;4.00;;;;;;;;;;5120605;27;20510;-90
2021/10/06 06:44:12;;;;;;;6.07;4.05;;;;;;;;;;5117966;27;20071;-90
2021/10/06 06:46:39;;;;;;;6.32;3.60;;;;;;;;;;5123264;27;20109;-88
2021/10/06 06:49:05;;;;;;;6.57;3.72;;;;;;;;;;5122598;27;20439;-87
2021/10/06 06:51:32;;;;;;;6.57;4.15;;;;;;;;;;5120204;27;20131;-88
2021/10/06 06:53:58;;;;;;;6.28;4.20;;;;;;;;;;5102507;27;20154;-90
2021/10/06 06:56:24;;;;;;;9.35;3.85;;;;;;;;;;5102111;27;20047;-88
2021/10/06 06:58:50;;;;;;;4.95;3.75;;;;;;;;;;5135256;27;20078;-88
2021/10/06 07:01:17;;;;;;;5.63;3.67;;;;;;;;;;5118407;27;20076;-87
2021/10/06 07:03:43;;;;;;;6.78;4.40;;;;;;;;;;5114254;27;20093;-87
2021/10/06 07:06:09;;;;;;;4.78;4.07;;;;;;;;;;5119814;27;20046;-88
2021/10/06 07:08:36;;;;;;;5.22;3.92;;;;;;;;;;5116287;27;20495;-86
2021/10/06 07:11:02;;;;;;;10.90;5.07;;;;;;;;;;5138063;27;20091;-88
2021/10/06 07:13:28;;;;;;;5.53;3.92;;;;;;;;;;5134213;27;20043;-87
2021/10/06 07:15:54;;;;;;;9.57;4.15;;;;;;;;;;5129320;27;20038;-88
2021/10/06 07:18:20;;;;;;;8.35;4.40;;;;;;;;;;5120532;27;20043;-86
2021/10/06 07:20:46;;;;;;;9.70;4.47;;;;;;;;;;5138276;27;20129;-87
2021/10/06 07:23:13;;;;;;;7.10;3.85;;;;;;;;;;5119928;27;20050;-88
2021/10/06 07:25:39;;;;;;;5.22;3.53;;;;;;;;;;5138083;27;20504;-89
2021/10/06 07:28:05;;;;;;;5.97;3.33;;;;;;;;;;5102955;27;20509;-88
2021/10/06 07:30:31;;;;;;;5.22;3.03;;;;;;;;;;5110232;27;20043;-89
2021/10/06 07:32:58;;;;;;;8.82;4.63;;;;;;;;;;5094501;27;20078;-88
2021/10/06 07:35:24;;;;;;;7.88;3.92;;;;;;;;;;5119144;27;20039;-87
2021/10/06 07:37:50;;;;;;;7.95;3.60;;;;;;;;;;5137203;27;20111;-89
2021/10/06 07:40:16;;;;;;;10.50;3.83;;;;;;;;;;5120041;27;20039;-87
2021/10/06 07:42:42;;;;;;;7.05;3.72;;;;;;;;;;5116784;27;20112;-89
2021/10/06 07:45:09;;;;;;;7.55;3.90;;;;;;;;;;5109753;27;20064;-87
2021/10/06 07:47:35;;;;;;;8.13;3.50;;;;;;;;;;5135490;27;20138;-88
2021/10/06 07:50:01;;;;;;;10.02;3.80;;;;;;;;;;5104446;27;20070;-87
2021/10/06 07:52:28;;;;;;;8.65;3.40;;;;;;;;;;5112464;27;20050;-88
2021/10/06 07:54:54;;;;;;;4.05;3.30;;;;;;;;;;5133691;27;20053;-89
2021/10/06 07:57:20;;;;;;;4.57;3.15;;;;;;;;;;5126853;27;20046;-88
2021/10/06 07:59:46;;;;;;;6.00;3.50;;;;;;;;;;5121306;27;20091;-89
2021/10/06 08:02:12;;;;;;;5.18;3.08;;;;;;;;;;5104148;27;20137;-89
2021/10/06 08:04:38;;;;;;;3.42;2.78;;;;;;;;;;5102717;27;20076;-88
2021/10/06 08:07:04;;;;;;;4.90;3.58;;;;;;;;;;5099532;27;20042;-89
2021/10/06 08:09:31;;;;;;;5.00;3.40;;;;;;;;;;5103957;27;20043;-88
2021/10/06 08:11:57;;;;;;;5.57;2.88;;;;;;;;;;5120169;27;20054;-89
2021/10/06 08:14:23;;;;;;;4.28;2.90;;;;;;;;;;5135863;27;20052;-87
2021/10/06 08:16:50;;;;;;;5.95;3.38;;;;;;;;;;5116404;27;20120;-89
2021/10/06 08:19:16;;;;;;;5.95;2.60;;;;;;;;;;5116553;27;20092;-88
2021/10/06 08:21:45;;;;;;;4.97;2.95;;;;;;;;;;5117304;27;20092;-89
2021/10/06 08:24:11;;;;;;;4.28;2.20;;;;;;;;;;5117175;27;20044;-89
2021/10/06 08:26:37;;;;;;;4.25;2.60;;;;;;;;;;5115016;27;20137;-89
2021/10/06 08:29:06;;;;;;;3.35;2.80;;;;;;;;;;5146879;27;20031;-90
2021/10/06 08:31:32;;;;;;;4.97;3.08;;;;;;;;;;5141586;27;20061;-89
2021/10/06 08:33:58;;;;;;;4.18;2.50;;;;;;;;;;5108684;27;20134;-90
2021/10/06 08:36:24;;;;;;;3.30;2.75;;;;;;;;;;5119099;27;20054;-89
2021/10/06 08:38:50;;;;;;;3.97;3.20;;;;;;;;;;5125887;27;20064;-89
2021/10/06 08:41:16;;;;;;;3.88;2.58;;;;;;;;;;5142818;27;20039;-89
2021/10/06 08:43:44;;;;;;;3.45;2.67;;;;;;;;;;5116708;27;20069;-89
2021/10/06 08:46:10;;;;;;;4.22;3.08;;;;;;;;;;5139944;27;20042;-89
2021/10/06 08:48:36;;;;;;;4.35;3.10;;;;;;;;;;5118511;27;20482;-88
2021/10/06 08:51:02;;;;;;;3.72;2.70;;;;;;;;;;5102907;27;20043;-88
2021/10/06 08:53:30;;;;;;;6.88;3.20;;;;;;;;;;5104496;27;20039;-88
2021/10/06 08:55:56;;;;;;;3.95;3.00;;;;;;;;;;5115911;27;20087;-88
2021/10/06 08:58:23;;;;;;;6.30;3.40;;;;;;;;;;5119237;27;20038;-89
2021/10/06 09:00:56;;;;;;;4.85;3.70;;;;;;;;;;5119694;27;20049;-89
2021/10/06 09:03:30;;;;;;;4.30;2.90;;;;;;;;;;5135613;27;20042;-87
2021/10/06 09:06:09;;;;;;;4.57;2.50;;;;;;;;;;5135935;27;20039;-88
2021/10/06 09:08:36;;;;;;;3.45;2.58;;;;;;;;;;5093317;27;20051;-88
2021/10/06 09:11:03;;;;;;;5.50;3.45;;;;;;;;;;5089448;27;20107;-88
2021/10/06 09:13:31;;;;;;;2.97;2.72;;;;;;;;;;5122869;27;20046;-88
2021/10/06 09:15:58;;;;;;;4.40;2.88;;;;;;;;;;5136641;27;20061;-88
2021/10/06 09:18:26;;;;;;;5.45;2.92;;;;;;;;;;5116010;27;20378;-89
2021/10/06 09:20:52;;;;;;;3.53;2.60;;;;;;;;;;5118599;27;20126;-88
2021/10/06 09:23:19;;;;;;;5.85;2.70;;;;;;;;;;5134660;27;20051;-87
2021/10/06 09:26:06;;;;;;;5.90;2.78;;;;;;;;;;5134512;27;20055;-88
2021/10/06 09:28:36;;;;;;;3.10;2.45;;;;;;;;;;5123040;27;20051;-88
2021/10/06 09:31:05;;;;;;;2.42;1.90;;;;;;;;;;5099346;27;20051;-88
2021/10/06 09:33:38;;;;;;;3.45;1.92;;;;;;;;;;5114509;27;20069;-88
2021/10/06 09:36:26;;;;;;;2.63;1.70;;;;;;;;;;5109702;27;20435;-87
2021/10/06 09:38:53;;;;;;;2.88;2.03;;;;;;;;;;5097905;27;20066;-87
2021/10/06 09:41:28;;;;;;;3.47;2.63;;;;;;;;;;5125149;27;20038;-86
2021/10/06 09:44:16;;;;;;;6.18;2.90;;;;;;;;;;5117447;27;20440;-87
2021/10/06 09:46:50;;;;;;;2.88;2.00;;;;;;;;;;5104512;27;20138;-86
2021/10/06 09:49:30;;;;;;;3.10;2.40;;;;;;;;;;5129163;27;20380;-86
2021/10/06 09:52:16;;;;;;;3.95;2.60;;;;;;;;;;5116619;27;20042;-87
2021/10/06 09:54:57;;;;;;;4.00;2.72;;;;;;;;;;5134806;27;20046;-87
2021/10/06 09:57:23;;;;;;;3.38;2.13;;;;;;;;;;5102092;27;20129;-88
2021/10/06 09:59:50;;;;;;;2.88;2.53;;;;;;;;;;5117456;27;20546;-87
2021/10/06 10:02:16;;;;;;;3.58;2.35;;;;;;;;;;5134350;27;20035;-87
2021/10/06 10:04:42;;;;;;;3.58;2.80;;;;;;;;;;5095995;28;20046;-87
2021/10/06 10:07:08;;;;;;;4.50;2.50;;;;;;;;;;5122826;27;20042;-89
2021/10/06 10:09:36;;;;;;;5.45;2.35;;;;;;;;;;5104470;27;20054;-87
2021/10/06 10:12:02;;;;;;;3.70;2.20;;;;;;;;;;5120872;27;20039;-86
2021/10/06 10:14:32;;;;;;;4.78;2.30;;;;;;;;;;5138353;27;20358;-86
2021/10/06 10:16:58;;;;;;;4.07;2.40;;;;;;;;;;5137081;27;20100;-86
2021/10/06 10:19:26;;;;;;;3.42;1.90;;;;;;;;;;5121705;27;20053;-86
2021/10/06 10:21:52;;;;;;;3.83;2.28;;;;;;;;;;5120143;27;20077;-86
2021/10/06 10:24:26;;;;;;;4.57;2.40;;;;;;;;;;5121534;27;20129;-87
2021/10/06 10:27:00;;;;;;;2.85;1.98;;;;;;;;;;5102204;27;20035;-86
2021/10/06 10:29:26;;;;;;;;;;;;;;;;;;5139784;27;20051;-86
2021/10/06 10:32:02;;;;;;;4.45;2.25;;;;;;;;;;5138356;27;19942;-86
2021/10/06 10:34:47;;;;;;;2.83;2.25;;;;;;;;;;5121103;27;20561;-86
2021/10/06 10:37:13;;;;;;;4.03;1.90;;;;;;;;;;5118830;27;20129;-87
2021/10/06 10:39:42;;;;;;;3.78;2.00;;;;;;;;;;5118984;27;20046;-86
2021/10/06 10:42:08;;;;;;;4.15;2.10;;;;;;;;;;5121063;27;20050;-86
2021/10/06 10:44:41;;;;;;;5.97;1.85;;;;;;;;;;5100995;27;20042;-82
2021/10/06 10:47:08;;;;;;;5.28;1.70;;;;;;;;;;5118681;27;20125;-90
2021/10/06 10:49:43;;;;;;;2.42;1.70;;;;;;;;;;5112037;27;20112;-86
2021/10/06 10:52:09;;;;;;;4.22;1.75;;;;;;;;;;5140062;27;20042;-93
2021/10/06 10:54:47;;;;;;;7.28;1.85;;;;;;;;;;5130025;27;20037;-91
2021/10/06 10:57:19;;;;;;;3.65;1.90;;;;;;;;;;5136050;27;20049;-90
2021/10/06 10:59:46;;;;;;;4.78;1.60;;;;;;;;;;5124476;27;20045;-82
2021/10/06 11:02:20;;;;;;;1.60;0.95;;;;;;;;;;5114659;27;20415;-83
2021/10/06 11:04:54;;;;;;;2.30;0.90;;;;;;;;;;5103177;27;20070;-78
2021/10/06 11:07:21;;;;;;;4.55;1.00;;;;;;;;;;5108170;27;20050;-78
2021/10/06 11:09:54;;;;;;;1.95;1.10;;;;;;;;;;5112407;27;20086;-79
2021/10/06 11:12:20;;;;;;;4.35;1.55;;;;;;;;;;5120364;27;20121;-78
2021/10/06 11:14:48;;;;;;;1.80;0.93;;;;;;;;;;5128674;27;20406;-78
2021/10/06 11:17:15;;;;;;;2.53;1.08;;;;;;;;;;5123426;27;20077;-81
2021/10/06 11:19:43;;;;;;;1.10;0.55;;;;;;;;;;5125630;27;20258;-76
2021/10/06 11:22:35;;;;;;;1.23;0.70;;;;;;;;;;5114119;27;20046;-78
2021/10/06 11:25:03;;;;;;;1.42;0.65;;;;;;;;;;5100287;27;20039;-76
2021/10/06 11:27:42;;;;;;;2.45;0.60;;;;;;;;;;5123253;27;20114;-77
2021/10/06 11:30:11;;;;;;;2.53;0.52;;;;;;;;;;5111801;27;20122;-76
2021/10/06 11:32:50;;;;;;;3.13;1.00;;;;;;;;;;5125918;27;20639;-80
2021/10/06 11:35:17;;;;;;;1.33;0.63;;;;;;;;;;5120895;27;20404;-77
2021/10/06 11:37:43;;;;;;;2.70;1.00;;;;;;;;;;5118055;27;20057;-77
2021/10/06 11:40:10;;;;;;;2.53;0.90;;;;;;;;;;5118673;27;20434;-76
2021/10/06 11:42:36;;;;;;;6.45;0.60;;;;;;;;;;5121388;27;20054;-78
2021/10/06 11:45:03;;;;;;;4.10;0.80;;;;;;;;;;5114060;27;20501;-77
2021/10/06 11:47:30;;;;;;;2.25;0.47;;;;;;;;;;5107329;27;20046;-76
2021/10/06 11:49:56;;;;;;;2.00;0.50;;;;;;;;;;5118136;27;20039;-77
2021/10/06 11:52:23;;;;;;;1.65;0.77;;;;;;;;;;5108140;27;20055;-76
2021/10/06 11:54:53;;;;;;;2.00;0.80;;;;;;;;;;5103041;27;20489;-77
2021/10/06 11:57:19;;;;;;;1.95;0.70;;;;;;;;;;5121635;27;20039;-77
2021/10/06 11:59:46;;;;;;;2.70;0.70;;;;;;;;;;5105333;27;20470;-77
2021/10/06 12:02:13;;;;;;;2.47;0.43;;;;;;;;;;5102419;27;20122;-77
2021/10/06 12:04:40;;;;;;;1.17;0.45;;;;;;;;;;5104744;27;20042;-79
2021/10/06 12:07:25;;;;;;;2.85;0.65;;;;;;;;;;5116085;27;20091;-76
2021/10/06 12:09:53;;;;;;;2.65;0.60;;;;;;;;;;5103166;27;20092;-76
2021/10/06 12:12:19;;;;;;;2.85;0.40;;;;;;;;;;5116443;27;20126;-76
2021/10/06 12:14:58;;;;;;;1.27;0.40;;;;;;;;;;5117533;27;20114;-76
2021/10/06 12:17:31;;;;;;;3.22;0.60;;;;;;;;;;5120193;27;20051;-77
2021/10/06 12:19:59;;;;;;;1.42;0.50;;;;;;;;;;5104786;27;20043;-77
2021/10/06 12:22:37;;;;;;;3.00;0.60;;;;;;;;;;5119743;27;20047;-77
2021/10/06 12:25:08;;;;;;;1.70;0.90;;;;;;;;;;5124540;27;20084;-76
2021/10/06 12:27:35;;;;;;;1.58;0.82;;;;;;;;;;5115557;27;20047;-76
2021/10/06 12:30:06;;;;;;;1.85;0.63;;;;;;;;;;5095846;27;20583;-76
2021/10/06 12:32:33;;;;;;;1.52;0.80;;;;;;;;;;5108481;27;20254;-76
2021/10/06 12:35:08;;;;;;;1.77;0.75;;;;;;;;;;5114391;27;20039;-77
2021/10/06 12:37:34;;;;;;;3.45;0.50;;;;;;;;;;5122450;27;20157;-77
2021/10/06 12:40:01;;;;;;;2.55;0.65;;;;;;;;;;5117103;27;20047;-77
2021/10/06 12:42:27;;;;;;;2.03;0.52;;;;;;;;;;5118417;27;20051;-77
2021/10/06 12:44:53;;;;;;;1.98;0.50;;;;;;;;;;5118145;27;20046;-77
2021/10/06 12:47:21;;;;;;;1.08;0.60;;;;;;;;;;5109465;27;20118;-77
2021/10/06 12:49:52;;;;;;;1.70;0.90;;;;;;;;;;5109590;27;20051;-76
2021/10/06 12:52:26;;;;;;;1.75;0.50;;;;;;;;;;5101565;27;20486;-77
2021/10/06 12:55:12;;;;;;;3.38;0.70;;;;;;;;;;5112262;27;20053;-77
2021/10/06 12:57:39;;;;;;;1.95;0.65;;;;;;;;;;5120859;27;20142;-77
2021/10/06 13:00:22;;;;;;;2.53;0.77;;;;;;;;;;5121427;27;20043;-77
2021/10/06 13:02:51;;;;;;;1.38;0.70;;;;;;;;;;5123899;27;20054;-76
2021/10/06 13:05:17;;;;;;;2.13;0.80;;;;;;;;;;5092092;27;20584;-77
2021/10/06 13:07:43;;;;;;;5.15;0.90;;;;;;;;;;5107206;27;20074;-76
2021/10/06 13:10:10;;;;;;;4.15;1.10;;;;;;;;;;5105342;27;20377;-76
2021/10/06 13:12:36;;;;;;;1.50;0.73;;;;;;;;;;5129331;27;20049;-76
2021/10/06 13:15:03;;;;;;;1.85;0.82;;;;;;;;;;5120734;27;20057;-76
2021/10/06 13:17:29;;;;;;;2.72;1.00;;;;;;;;;;5118218;27;20085;-76
2021/10/06 13:19:56;;;;;;;1.65;0.60;;;;;;;;;;5115411;27;20037;-77
2021/10/06 13:22:22;;;;;;;1.85;1.08;;;;;;;;;;5111437;27;20402;-77
2021/10/06 13:24:48;;;;;;;2.08;1.05;;;;;;;;;;5124272;27;20500;-76
2021/10/06 13:27:14;;;;;;;1.55;0.88;;;;;;;;;;5121670;27;20059;-76
2021/10/06 13:29:42;;;;;;;2.75;0.98;;;;;;;;;;5110144;27;20042;-76
2021/10/06 13:32:09;;;;;;;2.25;1.17;;;;;;;;;;5101410;27;20051;-77
2021/10/06 13:34:35;;;;;;;2.88;1.50;;;;;;;;;;5120532;27;20046;-78
2021/10/06 13:37:01;;;;;;;1.58;0.80;;;;;;;;;;5148070;27;20057;-76
2021/10/06 13:39:27;;;;;;;2.42;1.13;;;;;;;;;;5100023;27;20039;-77
2021/10/06 13:41:53;;;;;;;2.22;1.10;;;;;;;;;;5115520;27;20043;-78
2021/10/06 13:44:19;;;;;;;2.13;1.00;;;;;;;;;;5113639;27;20082;-77
2021/10/06 13:46:45;;;;;;;1.38;1.00;;;;;;;;;;5112776;27;20389;-77
2021/10/06 13:49:12;;;;;;;1.55;0.80;;;;;;;;;;5129638;27;20521;-76
2021/10/06 13:51:39;;;;;;;1.27;0.70;;;;;;;;;;5115531;27;20482;-76
2021/10/06 13:54:05;;;;;;;3.78;0.90;;;;;;;;;;5121443;27;20081;-77
2021/10/06 13:56:31;;;;;;;1.92;0.70;;;;;;;;;;5109906;27;20154;-76
2021/10/06 13:58:58;;;;;;;1.13;0.77;;;;;;;;;;5099563;27;20075;-77
2021/10/06 14:01:25;;;;;;;1.33;0.80;;;;;;;;;;5115590;27;20121;-77
2021/10/06 14:03:51;;;;;;;2.15;0.75;;;;;;;;;;5105606;27;20093;-78
2021/10/06 14:06:17;;;;;;;1.85;0.65;;;;;;;;;;5118475;27;20060;-77
2021/10/06 14:08:43;;;;;;;1.83;0.63;;;;;;;;;;5110375;27;20057;-77
2021/10/06 14:11:10;;;;;;;1.77;0.82;;;;;;;;;;5101599;28;20039;-77
2021/10/06 14:13:37;;;;;;;2.33;0.70;;;;;;;;;;5129150;27;20046;-77
2021/10/06 14:16:04;;;;;;;1.17;0.60;;;;;;;;;;5107367;27;20061;-77
2021/10/06 14:18:30;;;;;;;1.70;0.70;;;;;;;;;;5097681;27;20043;-77
2021/10/06 14:20:57;;;;;;;1.02;0.40;;;;;;;;;;5117048;27;20043;-77
2021/10/06 14:23:23;;;;;;;3.33;0.88;;;;;;;;;;5117215;27;20162;-76
2021/10/06 14:25:51;;;;;;;5.07;0.85;;;;;;;;;;5110883;27;20508;-76
2021/10/06 14:28:17;;;;;;;1.98;0.80;;;;;;;;;;5112507;27;20057;-79
2021/10/06 14:30:44;;;;;;;1.90;0.77;;;;;;;;;;5123819;28;20062;-77
2021/10/06 14:33:10;;;;;;;2.22;0.77;;;;;;;;;;5108733;27;20043;-82
2021/10/06 14:35:36;;;;;;;0.93;0.68;;;;;;;;;;5096294;27;20504;-82
2021/10/06 14:38:03;;;;;;;2.92;0.73;;;;;;;;;;5111436;27;20370;-79
2021/10/06 14:40:29;;;;;;;1.60;0.68;;;;;;;;;;5128615;27;20051;-76